This is the latest recevied weather packets stored in our database for station/object KB0Y. If no packets are shown the sender has not sent any weather packets the latest 10 day(s).
| Time | Temp. | Humidity | Pressure | Rain* | Wind** | Luminosity | Snow |
|---|---|---|---|---|---|---|---|
| 1777514552 | 23.89° C | 84% | 1016.9 hPa | 0 mm | - | 0 W/m² | - |
| 1777514250 | 23.89° C | 84% | 1016.9 hPa | 0 mm | - | 0 W/m² | - |
| 1777513946 | 23.89° C | 83% | 1016.9 hPa | 0 mm | - | 0 W/m² | - |
| 1777513644 | 23.89° C | 83% | 1016.9 hPa | 0 mm | - | 0 W/m² | - |
| 1777513341 | 24.44° C | 82% | 1016.6 hPa | 0 mm | - | 0 W/m² | - |
| 1777513036 | 24.44° C | 82% | 1016.6 hPa | 0 mm | - | 0 W/m² | - |
| 1777512733 | 24.44° C | 82% | 1016.6 hPa | 0 mm | - | 0 W/m² | - |
| 1777512126 | 24.44° C | 81% | 1016.6 hPa | 0 mm | - | 0 W/m² | - |
| 1777511824 | 25° C | 80% | 1016.2 hPa | 0 mm | - | 0 W/m² | - |
| 1777511521 | 25° C | 80% | 1016.2 hPa | 0 mm | - | 0 W/m² | - |
| 1777510307 | 25° C | 77% | 1015.6 hPa | 0 mm | - | 0 W/m² | - |
| 1777507881 | 26.11° C | 74% | 1014.9 hPa | 0 mm | - | 0 W/m² | - |
| 1777506366 | 27.22° C | 71% | 1014.5 hPa | 0 mm | - | 7 W/m² | - |
| 1777505757 | 28.33° C | 68% | 1014.5 hPa | 0 mm | - | 11 W/m² | - |
| 1777505455 | 28.33° C | 67% | 1014.5 hPa | 0 mm | - | 19 W/m² | - |
| 1777502421 | 31.11° C | 56% | 1014.2 hPa | 0 mm | - | 290 W/m² | - |
| 1777498482 | 32.78° C | 51% | 1014.2 hPa | 0 mm | - | 440 W/m² | - |
| 1777497268 | 33.33° C | 47% | 1014.2 hPa | 0 mm | - | 472 W/m² | - |
| 1777496662 | 32.78° C | 44% | 1014.5 hPa | 0 mm | - | 480 W/m² | - |
| 1777496358 | 32.78° C | 44% | 1014.2 hPa | 0 mm | - | 483 W/m² | - |
| 1777495447 | 33.33° C | 45% | 1014.5 hPa | 0 mm | - | 496 W/m² | - |
| 1777495143 | 33.33° C | 45% | 1014.5 hPa | 0 mm | - | 497 W/m² | - |
| 1777494840 | 33.33° C | 43% | 1014.5 hPa | 0 mm | - | 497 W/m² | - |
| 1777494537 | 33.89° C | 44% | 1014.9 hPa | 0 mm | - | 507 W/m² | - |
| 1777494235 | 33.89° C | 44% | 1014.5 hPa | 0 mm | - | 512 W/m² | - |
* Rain latest hour (hover to see other rain measurements)
** Current wind speed in m/s (hover to see current wind gust speed)